createdAt,value
2022-11-28T00:02:10.032Z,21.52
2022-11-28T00:05:14.849Z,21.51
2022-11-28T00:08:18.146Z,21.49
2022-11-28T00:11:21.516Z,21.47
2022-11-28T00:14:24.636Z,21.45
2022-11-28T00:17:27.728Z,21.44
2022-11-28T00:20:34.054Z,21.44
2022-11-28T00:23:37.602Z,21.37
2022-11-28T00:26:42.553Z,21.37
2022-11-28T00:29:45.623Z,21.42
2022-11-28T00:32:48.653Z,21.38
2022-11-28T00:35:58.728Z,21.40
2022-11-28T00:39:01.817Z,21.37
2022-11-28T00:42:05.078Z,21.37
2022-11-28T00:45:09.319Z,21.39
2022-11-28T00:48:12.384Z,21.31
2022-11-28T00:51:18.698Z,21.37
2022-11-28T00:54:21.780Z,21.38
2022-11-28T00:57:24.821Z,21.39
2022-11-28T01:00:27.792Z,21.39
2022-11-28T01:03:30.823Z,21.38
2022-11-28T01:06:39.340Z,21.39
2022-11-28T01:09:42.399Z,21.40
2022-11-28T01:12:45.542Z,21.37
2022-11-28T01:15:48.698Z,21.40
2022-11-28T01:18:52.307Z,21.32
2022-11-28T01:21:56.853Z,21.39
2022-11-28T01:24:59.950Z,21.36
2022-11-28T01:28:03.057Z,21.37
2022-11-28T01:31:07.944Z,21.39
2022-11-28T01:34:11.220Z,21.41
2022-11-28T01:37:15.728Z,21.36
2022-11-28T01:40:18.928Z,21.36
2022-11-28T01:43:22.191Z,21.38
2022-11-28T01:46:25.265Z,21.38
2022-11-28T01:49:31.459Z,21.38
2022-11-28T01:52:38.958Z,21.38
2022-11-28T01:55:49.967Z,21.38
2022-11-28T01:58:59.663Z,21.35
2022-11-28T02:02:03.478Z,21.36
2022-11-28T02:05:07.402Z,21.33
2022-11-28T02:08:11.910Z,21.33
2022-11-28T02:11:43.773Z,21.33
2022-11-28T02:15:04.672Z,21.33
2022-11-28T02:18:22.284Z,21.35
2022-11-28T02:21:39.902Z,21.26
2022-11-28T02:25:21.109Z,21.34
2022-11-28T02:29:00.847Z,21.35
2022-11-28T02:32:15.999Z,21.35
2022-11-28T02:35:23.386Z,21.32
2022-11-28T02:38:40.214Z,21.34
2022-11-28T02:41:48.964Z,21.14
2022-11-28T02:44:57.199Z,21.33
2022-11-28T02:48:05.751Z,21.33
2022-11-28T02:51:15.056Z,21.32
2022-11-28T02:54:19.785Z,21.33
2022-11-28T02:57:23.217Z,21.34
2022-11-28T03:00:30.665Z,21.35
2022-11-28T03:03:49.684Z,21.32
2022-11-28T03:07:02.938Z,21.33
2022-11-28T03:10:15.867Z,21.27
2022-11-28T03:13:26.052Z,21.26
2022-11-28T03:16:32.489Z,21.31
2022-11-28T03:19:41.222Z,21.32
2022-11-28T03:22:51.324Z,21.30
2022-11-28T03:26:00.138Z,21.30
2022-11-28T03:29:09.140Z,21.32
2022-11-28T03:32:17.818Z,21.31
2022-11-28T03:35:25.361Z,21.31
2022-11-28T03:38:33.012Z,21.30
2022-11-28T03:41:40.257Z,21.31
2022-11-28T03:44:49.716Z,21.32
2022-11-28T03:47:58.212Z,21.27
2022-11-28T03:51:08.374Z,21.25
2022-11-28T03:54:16.255Z,21.20
2022-11-28T03:57:24.010Z,21.32
2022-11-28T04:00:27.408Z,21.31
2022-11-28T04:03:39.443Z,21.33
2022-11-28T04:06:55.155Z,21.31
2022-11-28T04:10:04.633Z,21.33
2022-11-28T04:13:16.849Z,21.30
2022-11-28T04:16:24.172Z,21.31
2022-11-28T04:19:32.260Z,21.30
2022-11-28T04:22:42.746Z,21.30
2022-11-28T04:25:52.233Z,21.29
2022-11-28T04:28:57.971Z,21.27
2022-11-28T04:32:03.422Z,21.26
2022-11-28T04:35:11.187Z,21.19
2022-11-28T04:38:16.143Z,21.22
2022-11-28T04:41:23.762Z,21.26
2022-11-28T04:44:31.194Z,21.24
2022-11-28T04:47:34.277Z,21.00
2022-11-28T04:50:51.524Z,20.91
2022-11-28T04:54:02.832Z,20.85
2022-11-28T04:57:15.258Z,21.02
2022-11-28T05:00:21.123Z,21.17
2022-11-28T05:03:29.064Z,21.23
2022-11-28T05:06:34.208Z,21.31
2022-11-28T05:09:38.726Z,21.43
2022-11-28T05:12:41.984Z,21.46
2022-11-28T05:15:44.980Z,21.46
2022-11-28T05:18:48.026Z,21.01
2022-11-28T05:21:53.186Z,21.23
2022-11-28T05:24:57.608Z,21.31
2022-11-28T05:28:00.663Z,21.34
2022-11-28T05:31:04.502Z,21.36
2022-11-28T05:34:07.562Z,21.32
2022-11-28T05:37:10.607Z,21.16
2022-11-28T05:40:15.353Z,21.23
2022-11-28T05:43:18.385Z,21.20
2022-11-28T05:46:22.077Z,21.21
2022-11-28T05:49:25.900Z,21.20
2022-11-28T05:52:32.336Z,21.23
2022-11-28T05:55:38.179Z,21.23
2022-11-28T05:58:41.333Z,21.23
2022-11-28T06:01:44.490Z,21.22
2022-11-28T06:04:47.614Z,21.20
2022-11-28T06:07:50.684Z,21.17
2022-11-28T06:10:59.168Z,21.19
2022-11-28T06:14:03.153Z,21.13
2022-11-28T06:17:06.158Z,21.14
2022-11-28T06:20:09.822Z,21.14
2022-11-28T06:23:12.809Z,21.14
2022-11-28T06:26:22.428Z,21.15
2022-11-28T06:29:25.572Z,21.15
2022-11-28T06:32:28.615Z,21.12
2022-11-28T06:35:31.617Z,21.12
2022-11-28T06:38:34.935Z,21.10
2022-11-28T06:41:39.387Z,21.11
2022-11-28T06:44:42.471Z,21.11
2022-11-28T06:47:45.549Z,21.12
2022-11-28T06:50:48.980Z,21.11
2022-11-28T06:53:52.522Z,21.10
2022-11-28T06:56:56.961Z,21.11
2022-11-28T07:00:00.091Z,21.09
2022-11-28T07:03:03.150Z,21.09
2022-11-28T07:06:07.005Z,21.08
2022-11-28T07:09:10.229Z,21.08
2022-11-28T07:12:15.045Z,21.10
2022-11-28T07:15:18.051Z,21.09
2022-11-28T07:18:21.432Z,21.07
2022-11-28T07:21:24.763Z,21.03
2022-11-28T07:24:27.902Z,21.06
2022-11-28T07:27:32.374Z,21.01
2022-11-28T07:30:35.358Z,21.06
2022-11-28T07:33:39.119Z,21.05
2022-11-28T07:36:42.158Z,21.05
2022-11-28T07:39:45.555Z,21.04
2022-11-28T07:42:50.228Z,20.97
2022-11-28T07:46:01.151Z,21.08
2022-11-28T07:49:05.471Z,21.07
2022-11-28T07:52:08.446Z,21.01
2022-11-28T07:55:11.484Z,21.03
2022-11-28T07:58:15.895Z,21.03
2022-11-28T08:01:21.271Z,21.05
2022-11-28T08:04:24.394Z,21.03
2022-11-28T08:07:27.621Z,21.04
2022-11-28T08:10:30.681Z,21.03
2022-11-28T08:13:35.335Z,21.03
2022-11-28T08:16:41.467Z,21.03
2022-11-28T08:19:44.630Z,21.03
2022-11-28T08:22:47.634Z,20.92
2022-11-28T08:25:50.682Z,21.00
2022-11-28T08:28:55.230Z,21.00
2022-11-28T08:31:58.271Z,21.01
2022-11-28T08:35:01.323Z,21.03
2022-11-28T08:38:04.726Z,21.01
2022-11-28T08:41:10.963Z,21.03
2022-11-28T08:44:16.308Z,20.97
2022-11-28T08:47:19.325Z,21.03
2022-11-28T08:50:22.345Z,21.02
2022-11-28T08:53:25.365Z,20.97
2022-11-28T08:56:28.445Z,20.99
2022-11-28T08:59:32.923Z,21.03
2022-11-28T09:02:35.916Z,21.03
2022-11-28T09:05:38.957Z,21.09
2022-11-28T09:08:42.156Z,21.12
2022-11-28T09:11:45.377Z,21.07
2022-11-28T09:14:49.767Z,21.13
2022-11-28T09:17:52.756Z,21.11
2022-11-28T09:20:59.575Z,21.11
2022-11-28T09:24:02.699Z,21.12
2022-11-28T09:27:05.778Z,21.19
2022-11-28T09:30:11.663Z,21.16
2022-11-28T09:33:14.717Z,21.24
2022-11-28T09:36:20.221Z,21.25
2022-11-28T09:39:23.476Z,21.27
2022-11-28T09:42:32.106Z,21.24
2022-11-28T09:45:36.698Z,21.28
2022-11-28T09:48:46.051Z,21.19
2022-11-28T09:51:54.943Z,21.30
2022-11-28T09:55:06.470Z,21.25
2022-11-28T09:58:16.693Z,21.18
2022-11-28T10:01:33.263Z,21.27
2022-11-28T10:04:43.256Z,21.24
2022-11-28T10:08:03.606Z,21.29
2022-11-28T10:11:15.555Z,21.28
2022-11-28T10:14:47.016Z,21.28
2022-11-28T10:18:02.507Z,21.25
2022-11-28T10:21:22.943Z,21.23
2022-11-28T10:24:35.983Z,21.21
2022-11-28T10:27:40.632Z,21.18
2022-11-28T10:30:49.990Z,21.20
2022-11-28T10:33:58.633Z,21.25
2022-11-28T10:37:05.916Z,21.24
2022-11-28T10:40:19.198Z,21.23
2022-11-28T10:43:32.296Z,21.29
2022-11-28T10:46:49.121Z,21.26
2022-11-28T10:50:01.497Z,21.30
2022-11-28T10:53:12.890Z,21.29
2022-11-28T10:56:30.098Z,21.28
2022-11-28T10:59:42.232Z,21.26
2022-11-28T11:02:48.962Z,21.22
2022-11-28T11:05:53.428Z,21.23
2022-11-28T11:08:56.454Z,21.20
2022-11-28T11:12:01.446Z,21.23
2022-11-28T11:15:18.152Z,21.21
2022-11-28T11:18:24.715Z,21.22
2022-11-28T11:21:29.172Z,21.20
2022-11-28T11:24:32.549Z,21.21
2022-11-28T11:27:37.544Z,21.20
2022-11-28T11:30:42.659Z,21.20
2022-11-28T11:33:46.473Z,21.19
2022-11-28T11:36:53.051Z,21.18
2022-11-28T11:39:56.419Z,21.23
2022-11-28T11:43:01.366Z,21.22
2022-11-28T11:46:06.537Z,21.23
2022-11-28T11:49:29.735Z,21.22
2022-11-28T11:52:34.162Z,21.20
2022-11-28T11:55:47.443Z,21.21
2022-11-28T11:58:55.518Z,21.23
2022-11-28T12:02:02.593Z,21.19
2022-11-28T12:05:11.344Z,21.15
2022-11-28T12:08:20.436Z,21.14
2022-11-28T12:11:27.843Z,21.16
2022-11-28T12:14:33.785Z,21.19
2022-11-28T12:17:53.417Z,21.16
2022-11-28T12:21:13.240Z,21.18
2022-11-28T12:24:26.068Z,21.19
2022-11-28T12:27:43.941Z,21.14
2022-11-28T12:31:04.278Z,21.15
2022-11-28T12:34:16.170Z,21.16
2022-11-28T12:37:55.155Z,21.12
2022-11-28T12:41:13.100Z,21.10
2022-11-28T12:44:23.402Z,21.15
2022-11-28T12:47:41.684Z,21.15
2022-11-28T12:50:50.024Z,21.15
2022-11-28T12:54:07.077Z,21.15
2022-11-28T12:57:19.383Z,21.15
2022-11-28T13:00:25.636Z,21.09
2022-11-28T13:03:42.350Z,21.15
2022-11-28T13:06:54.425Z,21.14
2022-11-28T13:10:05.314Z,21.13
2022-11-28T13:13:15.208Z,21.12
2022-11-28T13:16:27.257Z,21.14
2022-11-28T13:19:40.226Z,21.16
2022-11-28T13:22:58.895Z,21.12
2022-11-28T13:26:10.486Z,21.12
2022-11-28T13:29:25.004Z,21.12
2022-11-28T13:32:37.146Z,21.12
2022-11-28T13:35:43.886Z,21.10
2022-11-28T13:39:11.930Z,21.13
2022-11-28T13:42:59.392Z,21.11
2022-11-28T13:45:54.703Z,21.12
2022-11-28T13:49:14.346Z,21.09
2022-11-28T13:52:35.179Z,21.08
2022-11-28T13:55:41.126Z,21.13
2022-11-28T13:58:50.201Z,21.09
2022-11-28T14:02:00.321Z,21.11
2022-11-28T14:05:04.862Z,21.12
2022-11-28T14:08:08.809Z,21.10
2022-11-28T14:11:40.841Z,21.11
2022-11-28T14:15:18.672Z,21.06
2022-11-28T14:18:56.259Z,21.09
2022-11-28T14:22:18.551Z,21.09
2022-11-28T14:25:25.688Z,21.07
2022-11-28T14:28:36.669Z,21.07
2022-11-28T14:31:47.414Z,21.10
2022-11-28T14:35:07.177Z,21.09
2022-11-28T14:38:47.026Z,21.09
2022-11-28T14:42:59.777Z,21.08
2022-11-28T14:46:24.787Z,21.08
2022-11-28T14:49:27.882Z,21.10
2022-11-28T14:52:41.053Z,21.09
2022-11-28T14:55:44.282Z,21.08
2022-11-28T14:58:48.570Z,21.04
2022-11-28T15:01:56.888Z,21.09
2022-11-28T15:05:29.131Z,21.08
2022-11-28T15:08:56.682Z,21.08
2022-11-28T15:12:13.546Z,21.05
2022-11-28T15:15:18.797Z,21.07
2022-11-28T15:18:25.113Z,21.07
2022-11-28T15:21:28.221Z,21.05
2022-11-28T15:24:34.258Z,21.05
2022-11-28T15:27:37.416Z,21.06
2022-11-28T15:30:46.044Z,21.06
2022-11-28T15:33:49.462Z,21.07
2022-11-28T15:36:53.718Z,21.09
2022-11-28T15:39:59.312Z,21.09
2022-11-28T15:43:09.573Z,21.06
2022-11-28T15:46:20.748Z,21.07
2022-11-28T15:49:30.485Z,21.06
2022-11-28T15:52:33.547Z,21.07
2022-11-28T15:55:38.076Z,21.05
2022-11-28T15:58:41.578Z,21.05
2022-11-28T16:01:45.323Z,21.06
2022-11-28T16:04:48.758Z,20.98
2022-11-28T16:07:52.588Z,21.04
2022-11-28T16:10:57.848Z,21.05
2022-11-28T16:14:07.654Z,21.06
2022-11-28T16:17:21.614Z,21.07
2022-11-28T16:20:27.815Z,21.07
2022-11-28T16:23:35.460Z,21.05
2022-11-28T16:26:39.873Z,21.08
2022-11-28T16:29:47.544Z,21.06
2022-11-28T16:32:51.389Z,21.05
2022-11-28T16:35:54.489Z,21.06
2022-11-28T16:39:07.683Z,21.19
2022-11-28T16:42:20.209Z,21.29
2022-11-28T16:45:30.757Z,21.34
2022-11-28T16:48:36.524Z,21.35
2022-11-28T16:51:41.978Z,21.34
2022-11-28T16:54:45.085Z,21.36
2022-11-28T16:57:55.935Z,21.39
2022-11-28T17:01:02.409Z,21.32
2022-11-28T17:04:05.944Z,21.36
2022-11-28T17:07:12.312Z,21.38
2022-11-28T17:10:15.448Z,21.35
2022-11-28T17:13:19.923Z,21.31
2022-11-28T17:16:24.861Z,21.30
2022-11-28T17:19:30.720Z,21.28
2022-11-28T17:22:41.066Z,21.32
2022-11-28T17:25:44.524Z,21.29
2022-11-28T17:28:48.944Z,21.26
2022-11-28T17:31:55.187Z,21.23
2022-11-28T17:34:59.911Z,21.18
2022-11-28T17:38:03.440Z,21.18
2022-11-28T17:41:07.027Z,21.16
2022-11-28T17:44:17.617Z,21.16
2022-11-28T17:47:20.681Z,21.14
2022-11-28T17:50:23.727Z,21.15
2022-11-28T17:53:26.792Z,21.15
2022-11-28T17:56:31.351Z,21.20
2022-11-28T17:59:37.687Z,21.28
2022-11-28T18:02:40.936Z,21.32
2022-11-28T18:05:46.126Z,21.34
2022-11-28T18:08:50.546Z,21.36
2022-11-28T18:11:53.696Z,21.30
2022-11-28T18:14:59.624Z,21.39
2022-11-28T18:18:03.867Z,21.41
2022-11-28T18:21:08.848Z,21.42
2022-11-28T18:24:11.951Z,21.42
2022-11-28T18:27:15.036Z,21.46
2022-11-28T18:30:19.892Z,21.46
2022-11-28T18:33:23.109Z,21.44
2022-11-28T18:36:28.315Z,21.46
2022-11-28T18:39:31.443Z,21.47
2022-11-28T18:42:34.616Z,21.43
2022-11-28T18:45:39.171Z,21.49
2022-11-28T18:48:45.089Z,21.55
2022-11-28T18:51:48.520Z,21.48
2022-11-28T18:54:51.621Z,21.50
2022-11-28T18:57:54.678Z,21.51
2022-11-28T19:00:59.082Z,21.50
2022-11-28T19:04:04.736Z,21.46
2022-11-28T19:07:07.779Z,21.43
2022-11-28T19:10:12.175Z,21.41
2022-11-28T19:13:15.256Z,21.34
2022-11-28T19:16:21.763Z,21.39
2022-11-28T19:19:25.376Z,21.42
2022-11-28T19:22:28.529Z,21.45
2022-11-28T19:25:32.603Z,21.43
2022-11-28T19:28:36.137Z,21.41
2022-11-28T19:31:41.653Z,21.44
2022-11-28T19:34:44.934Z,21.44
2022-11-28T19:37:48.051Z,21.45
2022-11-28T19:40:51.213Z,21.44
2022-11-28T19:43:54.323Z,21.47
2022-11-28T19:46:58.932Z,21.49
2022-11-28T19:50:02.044Z,21.46
2022-11-28T19:53:05.089Z,21.46
2022-11-28T19:56:10.500Z,21.49
2022-11-28T19:59:13.864Z,21.56
2022-11-28T20:02:21.665Z,21.54
2022-11-28T20:05:24.757Z,21.55
2022-11-28T20:08:28.704Z,21.56
2022-11-28T20:11:34.088Z,21.55
2022-11-28T20:14:37.316Z,21.50
2022-11-28T20:17:41.820Z,21.46
2022-11-28T20:20:44.902Z,21.48
2022-11-28T20:23:49.483Z,21.43
2022-11-28T20:26:53.211Z,21.46
2022-11-28T20:29:56.232Z,21.44
2022-11-28T20:33:00.724Z,21.50
2022-11-28T20:36:08.150Z,21.51
2022-11-28T20:39:12.425Z,21.43
2022-11-28T20:42:15.537Z,21.51
2022-11-28T20:45:18.713Z,21.49
2022-11-28T20:48:23.088Z,21.49
2022-11-28T20:51:27.775Z,21.52
2022-11-28T20:54:31.165Z,21.46
2022-11-28T20:57:35.766Z,21.45
2022-11-28T21:00:38.795Z,21.41
2022-11-28T21:03:43.305Z,21.39
2022-11-28T21:06:49.079Z,21.28
2022-11-28T21:09:54.074Z,21.19
2022-11-28T21:12:57.032Z,21.16
2022-11-28T21:16:06.694Z,21.16
2022-11-28T21:19:11.206Z,21.14
2022-11-28T21:22:14.200Z,21.14
2022-11-28T21:25:17.278Z,21.12
2022-11-28T21:28:20.492Z,21.11
2022-11-28T21:31:25.896Z,21.10
2022-11-28T21:34:30.352Z,21.10
2022-11-28T21:37:33.411Z,21.09
2022-11-28T21:40:36.464Z,21.08
2022-11-28T21:43:39.532Z,21.08
2022-11-28T21:46:42.607Z,21.07
2022-11-28T21:49:47.151Z,21.09
2022-11-28T21:52:50.341Z,21.10
2022-11-28T21:55:55.190Z,21.07
2022-11-28T21:58:58.330Z,21.07
2022-11-28T22:02:01.561Z,21.07
2022-11-28T22:05:07.135Z,21.06
2022-11-28T22:08:10.820Z,21.01
2022-11-28T22:11:14.163Z,21.06
2022-11-28T22:14:17.941Z,21.05
2022-11-28T22:17:20.920Z,21.05
2022-11-28T22:20:25.285Z,21.05
2022-11-28T22:23:28.288Z,21.04
2022-11-28T22:26:31.333Z,21.04
2022-11-28T22:29:34.381Z,21.03
2022-11-28T22:32:37.364Z,21.03
2022-11-28T22:35:41.768Z,21.01
2022-11-28T22:38:46.135Z,21.01
2022-11-28T22:41:49.158Z,21.01
2022-11-28T22:44:52.272Z,20.97
2022-11-28T22:47:55.294Z,21.01
2022-11-28T22:51:00.075Z,21.02
2022-11-28T22:54:04.023Z,20.97
2022-11-28T22:57:07.212Z,21.00
2022-11-28T23:00:11.960Z,21.00
2022-11-28T23:03:15.159Z,20.99
2022-11-28T23:06:22.028Z,20.99
2022-11-28T23:09:25.239Z,21.00
2022-11-28T23:12:28.323Z,20.98
2022-11-28T23:15:31.438Z,20.98
2022-11-28T23:18:34.493Z,20.98
2022-11-28T23:21:40.858Z,20.98
2022-11-28T23:24:44.173Z,20.97
2022-11-28T23:27:47.366Z,20.91
2022-11-28T23:30:50.407Z,20.98
2022-11-28T23:33:54.368Z,20.98
2022-11-28T23:36:58.886Z,20.99
2022-11-28T23:40:04.333Z,20.98
2022-11-28T23:43:07.376Z,20.78
2022-11-28T23:46:11.998Z,20.96
2022-11-28T23:49:15.858Z,20.97
2022-11-28T23:52:20.287Z,20.96
2022-11-28T23:55:23.315Z,20.96
2022-11-28T23:58:27.032Z,20.97
